sensor_id;sensor_type;location;lat;lon;timestamp;P1;durP1;ratioP1;P2;durP2;ratioP2
31061;SDS011;17724;53.546;9.974;2022-10-16T00:03:29;10.40;;;4.70;;
31061;SDS011;17724;53.546;9.974;2022-10-16T00:07:29;9.77;;;4.90;;
31061;SDS011;17724;53.546;9.974;2022-10-16T00:11:31;8.57;;;3.93;;
31061;SDS011;17724;53.546;9.974;2022-10-16T00:15:34;7.87;;;3.77;;
31061;SDS011;17724;53.546;9.974;2022-10-16T00:19:36;12.40;;;3.90;;
31061;SDS011;17724;53.546;9.974;2022-10-16T00:23:37;8.40;;;3.33;;
31061;SDS011;17724;53.546;9.974;2022-10-16T00:27:38;8.97;;;3.27;;
31061;SDS011;17724;53.546;9.974;2022-10-16T00:31:38;8.20;;;2.50;;
31061;SDS011;17724;53.546;9.974;2022-10-16T00:35:38;8.60;;;2.67;;
31061;SDS011;17724;53.546;9.974;2022-10-16T00:39:38;6.73;;;1.83;;
31061;SDS011;17724;53.546;9.974;2022-10-16T00:43:40;7.90;;;2.37;;
31061;SDS011;17724;53.546;9.974;2022-10-16T00:47:44;9.93;;;2.07;;
31061;SDS011;17724;53.546;9.974;2022-10-16T00:51:49;7.37;;;2.20;;
31061;SDS011;17724;53.546;9.974;2022-10-16T00:55:53;8.83;;;2.13;;
31061;SDS011;17724;53.546;9.974;2022-10-16T00:59:54;7.20;;;2.20;;
31061;SDS011;17724;53.546;9.974;2022-10-16T01:03:54;8.00;;;2.00;;
31061;SDS011;17724;53.546;9.974;2022-10-16T01:16:41;6.93;;;1.93;;
31061;SDS011;17724;53.546;9.974;2022-10-16T01:24:57;7.57;;;2.30;;
31061;SDS011;17724;53.546;9.974;2022-10-16T01:33:24;7.57;;;1.83;;
31061;SDS011;17724;53.546;9.974;2022-10-16T01:37:35;10.67;;;2.20;;
31061;SDS011;17724;53.546;9.974;2022-10-16T01:41:45;6.90;;;1.90;;
31061;SDS011;17724;53.546;9.974;2022-10-16T01:45:51;7.50;;;2.00;;
31061;SDS011;17724;53.546;9.974;2022-10-16T01:49:52;6.60;;;1.83;;
31061;SDS011;17724;53.546;9.974;2022-10-16T01:53:56;9.83;;;2.20;;
31061;SDS011;17724;53.546;9.974;2022-10-16T01:58:00;7.83;;;1.90;;
31061;SDS011;17724;53.546;9.974;2022-10-16T02:02:04;8.27;;;2.40;;
31061;SDS011;17724;53.546;9.974;2022-10-16T02:06:09;8.00;;;2.37;;
31061;SDS011;17724;53.546;9.974;2022-10-16T02:10:09;8.50;;;2.80;;
31061;SDS011;17724;53.546;9.974;2022-10-16T02:14:10;7.97;;;2.83;;
31061;SDS011;17724;53.546;9.974;2022-10-16T02:18:11;7.33;;;2.23;;
31061;SDS011;17724;53.546;9.974;2022-10-16T02:22:26;12.07;;;2.40;;
31061;SDS011;17724;53.546;9.974;2022-10-16T02:26:35;7.63;;;2.10;;
31061;SDS011;17724;53.546;9.974;2022-10-16T02:30:45;7.07;;;1.90;;
31061;SDS011;17724;53.546;9.974;2022-10-16T02:34:50;8.20;;;2.23;;
31061;SDS011;17724;53.546;9.974;2022-10-16T02:38:51;6.60;;;1.70;;
31061;SDS011;17724;53.546;9.974;2022-10-16T02:42:53;7.07;;;1.87;;
31061;SDS011;17724;53.546;9.974;2022-10-16T02:46:54;7.63;;;1.90;;
31061;SDS011;17724;53.546;9.974;2022-10-16T02:50:55;7.40;;;1.60;;
31061;SDS011;17724;53.546;9.974;2022-10-16T02:54:55;7.50;;;2.23;;
31061;SDS011;17724;53.546;9.974;2022-10-16T02:58:56;6.80;;;1.90;;
31061;SDS011;17724;53.546;9.974;2022-10-16T03:02:56;7.23;;;2.10;;
31061;SDS011;17724;53.546;9.974;2022-10-16T03:06:56;7.17;;;1.83;;
31061;SDS011;17724;53.546;9.974;2022-10-16T03:10:57;12.03;;;2.50;;
31061;SDS011;17724;53.546;9.974;2022-10-16T03:14:57;8.00;;;1.70;;
31061;SDS011;17724;53.546;9.974;2022-10-16T03:18:58;8.10;;;1.70;;
31061;SDS011;17724;53.546;9.974;2022-10-16T03:22:58;6.93;;;1.20;;
31061;SDS011;17724;53.546;9.974;2022-10-16T03:26:59;9.33;;;1.50;;
31061;SDS011;17724;53.546;9.974;2022-10-16T03:31:00;6.50;;;1.60;;
31061;SDS011;17724;53.546;9.974;2022-10-16T03:35:00;7.70;;;1.23;;
31061;SDS011;17724;53.546;9.974;2022-10-16T03:39:00;11.10;;;1.90;;
31061;SDS011;17724;53.546;9.974;2022-10-16T03:43:01;5.90;;;1.00;;
31061;SDS011;17724;53.546;9.974;2022-10-16T03:47:01;7.00;;;1.67;;
31061;SDS011;17724;53.546;9.974;2022-10-16T03:51:02;7.17;;;1.50;;
31061;SDS011;17724;53.546;9.974;2022-10-16T03:55:02;8.17;;;2.00;;
31061;SDS011;17724;53.546;9.974;2022-10-16T03:59:03;7.70;;;2.20;;
31061;SDS011;17724;53.546;9.974;2022-10-16T04:03:03;7.33;;;1.60;;
31061;SDS011;17724;53.546;9.974;2022-10-16T04:07:04;6.97;;;1.90;;
31061;SDS011;17724;53.546;9.974;2022-10-16T04:11:04;10.00;;;2.20;;
31061;SDS011;17724;53.546;9.974;2022-10-16T04:15:05;9.20;;;2.10;;
31061;SDS011;17724;53.546;9.974;2022-10-16T04:19:06;8.47;;;2.60;;
31061;SDS011;17724;53.546;9.974;2022-10-16T04:23:06;8.07;;;2.40;;
31061;SDS011;17724;53.546;9.974;2022-10-16T04:27:07;7.93;;;2.90;;
31061;SDS011;17724;53.546;9.974;2022-10-16T04:31:07;7.07;;;2.10;;
31061;SDS011;17724;53.546;9.974;2022-10-16T04:35:07;6.60;;;1.90;;
31061;SDS011;17724;53.546;9.974;2022-10-16T04:39:08;7.13;;;2.10;;
31061;SDS011;17724;53.546;9.974;2022-10-16T04:43:09;9.57;;;2.57;;
31061;SDS011;17724;53.546;9.974;2022-10-16T04:47:09;6.80;;;2.07;;
31061;SDS011;17724;53.546;9.974;2022-10-16T04:51:10;8.30;;;1.93;;
31061;SDS011;17724;53.546;9.974;2022-10-16T04:55:10;9.30;;;2.83;;
31061;SDS011;17724;53.546;9.974;2022-10-16T04:59:11;10.07;;;2.70;;
31061;SDS011;17724;53.546;9.974;2022-10-16T05:03:12;10.40;;;3.13;;
31061;SDS011;17724;53.546;9.974;2022-10-16T05:07:13;9.00;;;2.67;;
31061;SDS011;17724;53.546;9.974;2022-10-16T05:11:14;11.23;;;3.10;;
31061;SDS011;17724;53.546;9.974;2022-10-16T05:15:14;7.90;;;3.30;;
31061;SDS011;17724;53.546;9.974;2022-10-16T05:19:14;8.83;;;2.80;;
31061;SDS011;17724;53.546;9.974;2022-10-16T05:23:15;9.10;;;2.80;;
31061;SDS011;17724;53.546;9.974;2022-10-16T05:27:15;7.43;;;2.50;;
31061;SDS011;17724;53.546;9.974;2022-10-16T05:31:19;7.57;;;2.30;;
31061;SDS011;17724;53.546;9.974;2022-10-16T05:35:19;7.30;;;2.00;;
31061;SDS011;17724;53.546;9.974;2022-10-16T05:39:20;7.90;;;2.00;;
31061;SDS011;17724;53.546;9.974;2022-10-16T05:43:21;7.83;;;2.40;;
31061;SDS011;17724;53.546;9.974;2022-10-16T05:47:21;7.40;;;1.90;;
31061;SDS011;17724;53.546;9.974;2022-10-16T05:51:22;7.60;;;1.70;;
31061;SDS011;17724;53.546;9.974;2022-10-16T05:55:24;7.87;;;1.70;;
31061;SDS011;17724;53.546;9.974;2022-10-16T05:59:24;6.63;;;2.00;;
31061;SDS011;17724;53.546;9.974;2022-10-16T06:03:25;8.00;;;2.00;;
31061;SDS011;17724;53.546;9.974;2022-10-16T06:07:26;9.37;;;2.17;;
31061;SDS011;17724;53.546;9.974;2022-10-16T06:11:27;7.87;;;2.50;;
31061;SDS011;17724;53.546;9.974;2022-10-16T06:15:32;7.53;;;2.37;;
31061;SDS011;17724;53.546;9.974;2022-10-16T06:19:32;8.80;;;2.33;;
31061;SDS011;17724;53.546;9.974;2022-10-16T06:23:32;7.93;;;2.60;;
31061;SDS011;17724;53.546;9.974;2022-10-16T06:27:33;8.30;;;2.73;;
31061;SDS011;17724;53.546;9.974;2022-10-16T06:31:33;9.93;;;2.80;;
31061;SDS011;17724;53.546;9.974;2022-10-16T06:35:33;7.43;;;2.30;;
31061;SDS011;17724;53.546;9.974;2022-10-16T06:39:34;9.20;;;2.60;;
31061;SDS011;17724;53.546;9.974;2022-10-16T06:43:34;9.70;;;3.60;;
31061;SDS011;17724;53.546;9.974;2022-10-16T06:47:37;8.10;;;3.17;;
31061;SDS011;17724;53.546;9.974;2022-10-16T06:51:38;9.73;;;3.10;;
31061;SDS011;17724;53.546;9.974;2022-10-16T06:55:40;12.83;;;3.13;;
31061;SDS011;17724;53.546;9.974;2022-10-16T06:59:41;7.83;;;2.50;;
31061;SDS011;17724;53.546;9.974;2022-10-16T07:03:42;7.93;;;2.43;;
31061;SDS011;17724;53.546;9.974;2022-10-16T07:07:44;7.70;;;2.60;;
31061;SDS011;17724;53.546;9.974;2022-10-16T07:11:44;10.07;;;3.03;;
31061;SDS011;17724;53.546;9.974;2022-10-16T07:15:44;8.33;;;3.43;;
31061;SDS011;17724;53.546;9.974;2022-10-16T07:19:45;8.87;;;2.80;;
31061;SDS011;17724;53.546;9.974;2022-10-16T07:23:45;8.13;;;3.00;;
31061;SDS011;17724;53.546;9.974;2022-10-16T07:27:49;9.00;;;3.20;;
31061;SDS011;17724;53.546;9.974;2022-10-16T07:31:50;8.00;;;2.70;;
31061;SDS011;17724;53.546;9.974;2022-10-16T07:35:51;7.27;;;2.33;;
31061;SDS011;17724;53.546;9.974;2022-10-16T07:39:52;11.57;;;2.63;;
31061;SDS011;17724;53.546;9.974;2022-10-16T07:43:53;7.93;;;3.10;;
31061;SDS011;17724;53.546;9.974;2022-10-16T08:01:50;10.07;;;2.50;;
31061;SDS011;17724;53.546;9.974;2022-10-16T08:05:51;7.87;;;3.13;;
31061;SDS011;17724;53.546;9.974;2022-10-16T08:09:51;10.57;;;2.97;;
31061;SDS011;17724;53.546;9.974;2022-10-16T08:13:52;8.03;;;2.57;;
31061;SDS011;17724;53.546;9.974;2022-10-16T08:18:00;8.00;;;2.50;;
31061;SDS011;17724;53.546;9.974;2022-10-16T08:22:02;7.93;;;2.10;;
31061;SDS011;17724;53.546;9.974;2022-10-16T08:26:03;9.07;;;3.57;;
31061;SDS011;17724;53.546;9.974;2022-10-16T08:30:06;8.13;;;3.43;;
31061;SDS011;17724;53.546;9.974;2022-10-16T08:34:07;7.60;;;2.63;;
31061;SDS011;17724;53.546;9.974;2022-10-16T08:38:08;6.73;;;2.03;;
31061;SDS011;17724;53.546;9.974;2022-10-16T08:42:17;7.57;;;2.20;;
31061;SDS011;17724;53.546;9.974;2022-10-16T08:50:51;7.43;;;2.30;;
31061;SDS011;17724;53.546;9.974;2022-10-16T08:54:53;9.30;;;2.47;;
31061;SDS011;17724;53.546;9.974;2022-10-16T08:58:57;8.53;;;1.90;;
31061;SDS011;17724;53.546;9.974;2022-10-16T09:07:27;8.10;;;2.30;;
31061;SDS011;17724;53.546;9.974;2022-10-16T09:19:46;10.37;;;2.40;;
31061;SDS011;17724;53.546;9.974;2022-10-16T09:23:53;7.90;;;1.93;;
31061;SDS011;17724;53.546;9.974;2022-10-16T09:27:57;7.03;;;2.07;;
31061;SDS011;17724;53.546;9.974;2022-10-16T09:31:57;12.33;;;2.30;;
31061;SDS011;17724;53.546;9.974;2022-10-16T09:36:11;7.53;;;1.83;;
31061;SDS011;17724;53.546;9.974;2022-10-16T09:40:23;8.10;;;1.43;;
31061;SDS011;17724;53.546;9.974;2022-10-16T09:44:35;7.40;;;2.07;;
31061;SDS011;17724;53.546;9.974;2022-10-16T09:52:43;7.97;;;1.70;;
31061;SDS011;17724;53.546;9.974;2022-10-16T09:56:43;8.33;;;2.03;;
31061;SDS011;17724;53.546;9.974;2022-10-16T10:00:52;8.17;;;1.60;;
31061;SDS011;17724;53.546;9.974;2022-10-16T10:04:54;7.70;;;1.80;;
31061;SDS011;17724;53.546;9.974;2022-10-16T10:09:06;7.90;;;1.73;;
31061;SDS011;17724;53.546;9.974;2022-10-16T10:13:19;9.63;;;2.00;;
31061;SDS011;17724;53.546;9.974;2022-10-16T10:17:22;8.30;;;2.20;;
31061;SDS011;17724;53.546;9.974;2022-10-16T10:21:24;7.33;;;2.03;;
31061;SDS011;17724;53.546;9.974;2022-10-16T10:25:33;11.13;;;1.80;;
31061;SDS011;17724;53.546;9.974;2022-10-16T10:30:01;6.77;;;1.70;;
31061;SDS011;17724;53.546;9.974;2022-10-16T10:34:18;8.00;;;2.27;;
31061;SDS011;17724;53.546;9.974;2022-10-16T10:46:56;7.70;;;1.70;;
31061;SDS011;17724;53.546;9.974;2022-10-16T10:51:04;7.43;;;1.57;;
31061;SDS011;17724;53.546;9.974;2022-10-16T11:12:24;8.63;;;1.67;;
31061;SDS011;17724;53.546;9.974;2022-10-16T11:16:31;8.17;;;2.53;;
31061;SDS011;17724;53.546;9.974;2022-10-16T11:20:45;10.97;;;2.13;;
31061;SDS011;17724;53.546;9.974;2022-10-16T11:25:33;9.73;;;1.50;;
31061;SDS011;17724;53.546;9.974;2022-10-16T11:29:24;7.83;;;1.37;;
31061;SDS011;17724;53.546;9.974;2022-10-16T11:43:22;9.00;;;1.93;;
31061;SDS011;17724;53.546;9.974;2022-10-16T11:47:35;7.60;;;1.30;;
31061;SDS011;17724;53.546;9.974;2022-10-16T11:55:48;7.97;;;1.40;;
31061;SDS011;17724;53.546;9.974;2022-10-16T12:04:16;6.90;;;1.17;;
31061;SDS011;17724;53.546;9.974;2022-10-16T12:08:17;7.47;;;1.30;;
31061;SDS011;17724;53.546;9.974;2022-10-16T12:12:37;9.70;;;1.40;;
31061;SDS011;17724;53.546;9.974;2022-10-16T12:20:55;9.00;;;1.70;;
31061;SDS011;17724;53.546;9.974;2022-10-16T12:25:18;8.60;;;1.37;;
31061;SDS011;17724;53.546;9.974;2022-10-16T12:33:50;8.47;;;1.27;;
31061;SDS011;17724;53.546;9.974;2022-10-16T12:38:07;10.83;;;1.70;;
31061;SDS011;17724;53.546;9.974;2022-10-16T12:50:37;8.23;;;1.80;;
31061;SDS011;17724;53.546;9.974;2022-10-16T12:54:40;8.27;;;1.00;;
31061;SDS011;17724;53.546;9.974;2022-10-16T13:29:02;11.63;;;4.80;;
31061;SDS011;17724;53.546;9.974;2022-10-16T13:33:07;17.27;;;9.27;;
31061;SDS011;17724;53.546;9.974;2022-10-16T13:37:18;10.47;;;3.20;;
31061;SDS011;17724;53.546;9.974;2022-10-16T13:41:20;9.83;;;2.23;;
31061;SDS011;17724;53.546;9.974;2022-10-16T13:45:21;10.07;;;2.77;;
31061;SDS011;17724;53.546;9.974;2022-10-16T13:49:25;8.57;;;2.43;;
31061;SDS011;17724;53.546;9.974;2022-10-16T13:53:26;11.30;;;4.33;;
31061;SDS011;17724;53.546;9.974;2022-10-16T13:57:26;10.53;;;4.67;;
31061;SDS011;17724;53.546;9.974;2022-10-16T14:02:00;42.53;;;29.80;;
31061;SDS011;17724;53.546;9.974;2022-10-16T14:06:00;9.10;;;3.03;;
31061;SDS011;17724;53.546;9.974;2022-10-16T14:10:06;11.20;;;2.53;;
31061;SDS011;17724;53.546;9.974;2022-10-16T14:14:21;10.43;;;2.97;;
31061;SDS011;17724;53.546;9.974;2022-10-16T14:18:23;9.70;;;2.60;;
31061;SDS011;17724;53.546;9.974;2022-10-16T14:22:31;8.33;;;1.90;;
31061;SDS011;17724;53.546;9.974;2022-10-16T14:26:40;11.10;;;2.10;;
31061;SDS011;17724;53.546;9.974;2022-10-16T14:35:34;10.10;;;3.50;;
31061;SDS011;17724;53.546;9.974;2022-10-16T14:39:37;17.57;;;8.97;;
31061;SDS011;17724;53.546;9.974;2022-10-16T14:43:38;11.93;;;5.03;;
31061;SDS011;17724;53.546;9.974;2022-10-16T14:47:54;11.60;;;3.20;;
31061;SDS011;17724;53.546;9.974;2022-10-16T14:51:57;13.53;;;6.20;;
31061;SDS011;17724;53.546;9.974;2022-10-16T14:55:58;13.20;;;5.37;;
31061;SDS011;17724;53.546;9.974;2022-10-16T14:59:58;12.50;;;3.40;;
31061;SDS011;17724;53.546;9.974;2022-10-16T15:03:59;9.43;;;2.37;;
31061;SDS011;17724;53.546;9.974;2022-10-16T15:07:59;10.17;;;2.90;;
31061;SDS011;17724;53.546;9.974;2022-10-16T15:11:59;11.17;;;4.80;;
31061;SDS011;17724;53.546;9.974;2022-10-16T15:16:00;9.80;;;3.50;;
31061;SDS011;17724;53.546;9.974;2022-10-16T15:20:00;9.53;;;3.67;;
31061;SDS011;17724;53.546;9.974;2022-10-16T15:24:01;16.77;;;7.30;;
31061;SDS011;17724;53.546;9.974;2022-10-16T15:28:02;18.00;;;9.87;;
31061;SDS011;17724;53.546;9.974;2022-10-16T15:32:03;13.50;;;3.77;;
31061;SDS011;17724;53.546;9.974;2022-10-16T15:36:04;36.50;;;24.80;;
31061;SDS011;17724;53.546;9.974;2022-10-16T15:40:04;18.07;;;10.20;;
31061;SDS011;17724;53.546;9.974;2022-10-16T15:44:05;18.93;;;12.17;;
31061;SDS011;17724;53.546;9.974;2022-10-16T15:48:05;18.37;;;7.20;;
31061;SDS011;17724;53.546;9.974;2022-10-16T15:52:06;22.93;;;14.40;;
31061;SDS011;17724;53.546;9.974;2022-10-16T15:56:07;40.50;;;29.03;;
31061;SDS011;17724;53.546;9.974;2022-10-16T16:00:19;10.93;;;4.30;;
31061;SDS011;17724;53.546;9.974;2022-10-16T16:04:25;33.00;;;21.70;;
31061;SDS011;17724;53.546;9.974;2022-10-16T16:08:25;28.73;;;20.00;;
31061;SDS011;17724;53.546;9.974;2022-10-16T16:12:26;32.70;;;21.17;;
31061;SDS011;17724;53.546;9.974;2022-10-16T16:16:26;19.10;;;13.47;;
31061;SDS011;17724;53.546;9.974;2022-10-16T16:20:26;21.73;;;14.00;;
31061;SDS011;17724;53.546;9.974;2022-10-16T16:24:27;16.27;;;9.13;;
31061;SDS011;17724;53.546;9.974;2022-10-16T16:28:27;24.03;;;15.93;;
31061;SDS011;17724;53.546;9.974;2022-10-16T16:32:28;17.57;;;7.83;;
31061;SDS011;17724;53.546;9.974;2022-10-16T16:36:28;16.23;;;7.57;;
31061;SDS011;17724;53.546;9.974;2022-10-16T16:40:29;15.87;;;6.17;;
31061;SDS011;17724;53.546;9.974;2022-10-16T16:44:29;10.27;;;3.53;;
31061;SDS011;17724;53.546;9.974;2022-10-16T16:48:29;27.20;;;23.63;;
31061;SDS011;17724;53.546;9.974;2022-10-16T16:52:32;37.53;;;22.90;;
31061;SDS011;17724;53.546;9.974;2022-10-16T16:56:34;27.03;;;20.60;;
31061;SDS011;17724;53.546;9.974;2022-10-16T17:00:35;12.73;;;5.30;;
31061;SDS011;17724;53.546;9.974;2022-10-16T17:04:35;17.00;;;7.47;;
31061;SDS011;17724;53.546;9.974;2022-10-16T17:08:36;15.83;;;6.97;;
31061;SDS011;17724;53.546;9.974;2022-10-16T17:12:37;42.97;;;28.03;;
31061;SDS011;17724;53.546;9.974;2022-10-16T17:16:37;25.80;;;19.27;;
31061;SDS011;17724;53.546;9.974;2022-10-16T17:20:39;39.33;;;33.80;;
31061;SDS011;17724;53.546;9.974;2022-10-16T17:24:40;28.50;;;21.20;;
31061;SDS011;17724;53.546;9.974;2022-10-16T17:28:41;37.60;;;29.37;;
31061;SDS011;17724;53.546;9.974;2022-10-16T17:32:41;18.80;;;11.00;;
31061;SDS011;17724;53.546;9.974;2022-10-16T17:36:42;27.60;;;16.97;;
31061;SDS011;17724;53.546;9.974;2022-10-16T17:40:43;13.67;;;7.40;;
31061;SDS011;17724;53.546;9.974;2022-10-16T17:44:43;15.97;;;9.37;;
31061;SDS011;17724;53.546;9.974;2022-10-16T17:48:44;20.50;;;14.07;;
31061;SDS011;17724;53.546;9.974;2022-10-16T17:52:46;22.80;;;14.00;;
31061;SDS011;17724;53.546;9.974;2022-10-16T17:56:46;15.00;;;7.23;;
31061;SDS011;17724;53.546;9.974;2022-10-16T18:00:47;16.37;;;10.67;;
31061;SDS011;17724;53.546;9.974;2022-10-16T18:04:48;19.10;;;13.27;;
31061;SDS011;17724;53.546;9.974;2022-10-16T18:08:52;21.47;;;12.43;;
31061;SDS011;17724;53.546;9.974;2022-10-16T18:12:54;17.60;;;8.40;;
31061;SDS011;17724;53.546;9.974;2022-10-16T18:16:56;16.97;;;9.57;;
31061;SDS011;17724;53.546;9.974;2022-10-16T18:20:57;15.40;;;7.33;;
31061;SDS011;17724;53.546;9.974;2022-10-16T18:24:58;17.63;;;9.73;;
31061;SDS011;17724;53.546;9.974;2022-10-16T18:28:59;15.70;;;8.77;;
31061;SDS011;17724;53.546;9.974;2022-10-16T18:33:01;24.30;;;17.47;;
31061;SDS011;17724;53.546;9.974;2022-10-16T18:37:01;19.20;;;11.93;;
31061;SDS011;17724;53.546;9.974;2022-10-16T18:41:02;17.97;;;7.40;;
31061;SDS011;17724;53.546;9.974;2022-10-16T18:45:06;15.53;;;7.40;;
31061;SDS011;17724;53.546;9.974;2022-10-16T18:49:07;15.13;;;6.80;;
31061;SDS011;17724;53.546;9.974;2022-10-16T18:53:07;26.33;;;14.30;;
31061;SDS011;17724;53.546;9.974;2022-10-16T18:57:08;14.57;;;8.10;;
31061;SDS011;17724;53.546;9.974;2022-10-16T19:01:12;18.10;;;10.70;;
31061;SDS011;17724;53.546;9.974;2022-10-16T19:05:14;13.93;;;6.70;;
31061;SDS011;17724;53.546;9.974;2022-10-16T19:09:15;17.30;;;8.10;;
31061;SDS011;17724;53.546;9.974;2022-10-16T19:13:17;17.83;;;9.83;;
31061;SDS011;17724;53.546;9.974;2022-10-16T19:17:17;15.23;;;7.17;;
31061;SDS011;17724;53.546;9.974;2022-10-16T19:21:17;14.10;;;7.00;;
31061;SDS011;17724;53.546;9.974;2022-10-16T19:25:18;24.83;;;13.47;;
31061;SDS011;17724;53.546;9.974;2022-10-16T19:29:22;23.27;;;14.40;;
31061;SDS011;17724;53.546;9.974;2022-10-16T19:33:22;27.80;;;18.37;;
31061;SDS011;17724;53.546;9.974;2022-10-16T19:37:23;17.60;;;10.20;;
31061;SDS011;17724;53.546;9.974;2022-10-16T19:41:27;14.53;;;5.57;;
31061;SDS011;17724;53.546;9.974;2022-10-16T19:45:28;13.77;;;7.80;;
31061;SDS011;17724;53.546;9.974;2022-10-16T19:49:29;16.20;;;8.13;;
31061;SDS011;17724;53.546;9.974;2022-10-16T19:53:30;18.93;;;8.20;;
31061;SDS011;17724;53.546;9.974;2022-10-16T19:57:34;11.67;;;5.77;;
31061;SDS011;17724;53.546;9.974;2022-10-16T20:01:36;11.60;;;3.97;;
31061;SDS011;17724;53.546;9.974;2022-10-16T20:05:36;12.27;;;5.13;;
31061;SDS011;17724;53.546;9.974;2022-10-16T20:09:36;17.30;;;8.23;;
31061;SDS011;17724;53.546;9.974;2022-10-16T20:13:37;22.50;;;11.27;;
31061;SDS011;17724;53.546;9.974;2022-10-16T20:17:37;15.73;;;8.33;;
31061;SDS011;17724;53.546;9.974;2022-10-16T20:21:38;20.83;;;10.10;;
31061;SDS011;17724;53.546;9.974;2022-10-16T20:25:39;18.23;;;8.07;;
31061;SDS011;17724;53.546;9.974;2022-10-16T20:29:41;10.90;;;3.50;;
31061;SDS011;17724;53.546;9.974;2022-10-16T20:33:41;10.17;;;3.00;;
31061;SDS011;17724;53.546;9.974;2022-10-16T20:37:41;11.03;;;3.70;;
31061;SDS011;17724;53.546;9.974;2022-10-16T20:41:47;11.40;;;3.73;;
31061;SDS011;17724;53.546;9.974;2022-10-16T20:45:57;11.50;;;3.53;;
31061;SDS011;17724;53.546;9.974;2022-10-16T20:49:59;13.20;;;5.57;;
31061;SDS011;17724;53.546;9.974;2022-10-16T20:54:00;12.97;;;5.43;;
31061;SDS011;17724;53.546;9.974;2022-10-16T20:58:03;10.53;;;4.03;;
31061;SDS011;17724;53.546;9.974;2022-10-16T21:02:04;13.00;;;5.40;;
31061;SDS011;17724;53.546;9.974;2022-10-16T21:06:07;12.80;;;4.80;;
31061;SDS011;17724;53.546;9.974;2022-10-16T21:10:09;12.30;;;3.80;;
31061;SDS011;17724;53.546;9.974;2022-10-16T21:14:10;11.47;;;3.93;;
31061;SDS011;17724;53.546;9.974;2022-10-16T21:18:10;11.30;;;3.80;;
31061;SDS011;17724;53.546;9.974;2022-10-16T21:22:11;9.60;;;3.30;;
31061;SDS011;17724;53.546;9.974;2022-10-16T21:26:12;8.83;;;3.50;;
31061;SDS011;17724;53.546;9.974;2022-10-16T21:30:12;8.80;;;3.60;;
31061;SDS011;17724;53.546;9.974;2022-10-16T21:34:12;9.63;;;3.40;;
31061;SDS011;17724;53.546;9.974;2022-10-16T21:38:13;12.73;;;4.23;;
31061;SDS011;17724;53.546;9.974;2022-10-16T21:42:13;10.80;;;4.10;;
31061;SDS011;17724;53.546;9.974;2022-10-16T21:46:14;9.50;;;3.43;;
31061;SDS011;17724;53.546;9.974;2022-10-16T21:50:16;11.00;;;3.60;;
31061;SDS011;17724;53.546;9.974;2022-10-16T21:54:18;9.90;;;3.20;;
31061;SDS011;17724;53.546;9.974;2022-10-16T21:58:21;12.80;;;3.20;;
31061;SDS011;17724;53.546;9.974;2022-10-16T22:02:21;10.37;;;3.53;;
31061;SDS011;17724;53.546;9.974;2022-10-16T22:06:23;9.50;;;3.37;;
31061;SDS011;17724;53.546;9.974;2022-10-16T22:10:26;11.50;;;3.63;;
31061;SDS011;17724;53.546;9.974;2022-10-16T22:14:26;9.80;;;4.33;;
31061;SDS011;17724;53.546;9.974;2022-10-16T22:18:27;9.67;;;3.90;;
31061;SDS011;17724;53.546;9.974;2022-10-16T22:22:27;8.90;;;4.00;;
31061;SDS011;17724;53.546;9.974;2022-10-16T22:26:28;9.53;;;3.80;;
31061;SDS011;17724;53.546;9.974;2022-10-16T22:30:28;11.73;;;4.10;;
31061;SDS011;17724;53.546;9.974;2022-10-16T22:34:28;12.37;;;4.20;;
31061;SDS011;17724;53.546;9.974;2022-10-16T22:38:29;9.83;;;4.30;;
31061;SDS011;17724;53.546;9.974;2022-10-16T22:42:31;9.60;;;3.73;;
31061;SDS011;17724;53.546;9.974;2022-10-16T22:46:31;10.63;;;3.60;;
31061;SDS011;17724;53.546;9.974;2022-10-16T22:50:32;12.73;;;4.23;;
31061;SDS011;17724;53.546;9.974;2022-10-16T22:54:32;7.77;;;3.20;;
31061;SDS011;17724;53.546;9.974;2022-10-16T22:58:33;10.17;;;4.70;;
31061;SDS011;17724;53.546;9.974;2022-10-16T23:02:33;10.53;;;4.17;;
31061;SDS011;17724;53.546;9.974;2022-10-16T23:06:34;8.83;;;3.17;;
31061;SDS011;17724;53.546;9.974;2022-10-16T23:10:37;9.93;;;3.70;;
31061;SDS011;17724;53.546;9.974;2022-10-16T23:14:38;13.23;;;5.27;;
31061;SDS011;17724;53.546;9.974;2022-10-16T23:18:39;11.47;;;4.53;;
31061;SDS011;17724;53.546;9.974;2022-10-16T23:22:40;11.73;;;4.90;;
31061;SDS011;17724;53.546;9.974;2022-10-16T23:26:40;9.77;;;3.73;;
31061;SDS011;17724;53.546;9.974;2022-10-16T23:30:41;12.10;;;4.33;;
31061;SDS011;17724;53.546;9.974;2022-10-16T23:34:41;12.10;;;4.47;;
31061;SDS011;17724;53.546;9.974;2022-10-16T23:38:42;11.90;;;4.60;;
31061;SDS011;17724;53.546;9.974;2022-10-16T23:42:43;14.20;;;4.67;;
31061;SDS011;17724;53.546;9.974;2022-10-16T23:46:44;12.30;;;4.83;;
31061;SDS011;17724;53.546;9.974;2022-10-16T23:50:44;9.37;;;3.53;;
31061;SDS011;17724;53.546;9.974;2022-10-16T23:54:45;9.63;;;3.27;;
31061;SDS011;17724;53.546;9.974;2022-10-16T23:58:45;9.70;;;2.90;;
